sensor_id;sensor_type;location;lat;lon;timestamp;P1;durP1;ratioP1;P2;durP2;ratioP2
84117;SDS011;74212;51.132;6.950;2023-12-07T00:02:17;15.63;;;10.52;;
84117;SDS011;74212;51.132;6.950;2023-12-07T00:04:42;17.80;;;9.85;;
84117;SDS011;74212;51.132;6.950;2023-12-07T00:07:08;19.63;;;13.18;;
84117;SDS011;74212;51.132;6.950;2023-12-07T00:09:33;19.40;;;11.95;;
84117;SDS011;74212;51.132;6.950;2023-12-07T00:11:58;15.02;;;10.40;;
84117;SDS011;74212;51.132;6.950;2023-12-07T00:14:24;19.25;;;13.15;;
84117;SDS011;74212;51.132;6.950;2023-12-07T00:16:49;21.20;;;13.25;;
84117;SDS011;74212;51.132;6.950;2023-12-07T00:19:14;21.05;;;14.32;;
84117;SDS011;74212;51.132;6.950;2023-12-07T00:21:40;21.60;;;11.50;;
84117;SDS011;74212;51.132;6.950;2023-12-07T00:24:05;17.33;;;12.73;;
84117;SDS011;74212;51.132;6.950;2023-12-07T00:26:30;22.85;;;13.98;;
84117;SDS011;74212;51.132;6.950;2023-12-07T00:28:56;14.90;;;11.18;;
84117;SDS011;74212;51.132;6.950;2023-12-07T00:31:21;19.80;;;13.15;;
84117;SDS011;74212;51.132;6.950;2023-12-07T00:33:46;18.98;;;13.32;;
84117;SDS011;74212;51.132;6.950;2023-12-07T00:36:12;18.17;;;11.27;;
84117;SDS011;74212;51.132;6.950;2023-12-07T00:38:37;21.63;;;13.43;;
84117;SDS011;74212;51.132;6.950;2023-12-07T00:41:03;19.77;;;13.05;;
84117;SDS011;74212;51.132;6.950;2023-12-07T00:43:28;19.77;;;11.98;;
84117;SDS011;74212;51.132;6.950;2023-12-07T00:45:53;18.80;;;13.18;;
84117;SDS011;74212;51.132;6.950;2023-12-07T00:48:19;13.60;;;9.38;;
84117;SDS011;74212;51.132;6.950;2023-12-07T00:50:44;16.98;;;11.07;;
84117;SDS011;74212;51.132;6.950;2023-12-07T00:53:10;14.23;;;10.68;;
84117;SDS011;74212;51.132;6.950;2023-12-07T00:55:35;19.85;;;10.65;;
84117;SDS011;74212;51.132;6.950;2023-12-07T00:58:01;20.70;;;13.63;;
84117;SDS011;74212;51.132;6.950;2023-12-07T01:00:26;17.13;;;12.27;;
84117;SDS011;74212;51.132;6.950;2023-12-07T01:02:52;20.35;;;13.05;;
84117;SDS011;74212;51.132;6.950;2023-12-07T01:05:17;17.58;;;11.60;;
84117;SDS011;74212;51.132;6.950;2023-12-07T01:07:43;22.95;;;13.38;;
84117;SDS011;74212;51.132;6.950;2023-12-07T01:10:08;21.85;;;14.82;;
84117;SDS011;74212;51.132;6.950;2023-12-07T01:12:34;21.48;;;13.05;;
84117;SDS011;74212;51.132;6.950;2023-12-07T01:15:00;21.65;;;12.50;;
84117;SDS011;74212;51.132;6.950;2023-12-07T01:17:26;22.55;;;12.85;;
84117;SDS011;74212;51.132;6.950;2023-12-07T01:19:51;22.33;;;15.40;;
84117;SDS011;74212;51.132;6.950;2023-12-07T01:22:16;18.38;;;11.43;;
84117;SDS011;74212;51.132;6.950;2023-12-07T01:24:42;20.58;;;13.43;;
84117;SDS011;74212;51.132;6.950;2023-12-07T01:27:10;19.17;;;10.80;;
84117;SDS011;74212;51.132;6.950;2023-12-07T01:29:35;17.50;;;12.13;;
84117;SDS011;74212;51.132;6.950;2023-12-07T01:32:01;18.75;;;12.55;;
84117;SDS011;74212;51.132;6.950;2023-12-07T01:34:26;16.52;;;10.85;;
84117;SDS011;74212;51.132;6.950;2023-12-07T01:36:51;20.50;;;14.20;;
84117;SDS011;74212;51.132;6.950;2023-12-07T01:39:17;16.02;;;11.52;;
84117;SDS011;74212;51.132;6.950;2023-12-07T01:41:42;24.98;;;13.10;;
84117;SDS011;74212;51.132;6.950;2023-12-07T01:44:08;18.25;;;12.05;;
84117;SDS011;74212;51.132;6.950;2023-12-07T01:46:33;21.60;;;14.38;;
84117;SDS011;74212;51.132;6.950;2023-12-07T01:48:59;17.60;;;11.52;;
84117;SDS011;74212;51.132;6.950;2023-12-07T01:51:25;19.15;;;12.82;;
84117;SDS011;74212;51.132;6.950;2023-12-07T01:53:51;20.85;;;13.63;;
84117;SDS011;74212;51.132;6.950;2023-12-07T01:56:16;20.02;;;12.82;;
84117;SDS011;74212;51.132;6.950;2023-12-07T01:58:42;20.30;;;12.75;;
84117;SDS011;74212;51.132;6.950;2023-12-07T02:01:08;18.70;;;12.57;;
84117;SDS011;74212;51.132;6.950;2023-12-07T02:03:36;17.25;;;11.43;;
84117;SDS011;74212;51.132;6.950;2023-12-07T02:06:04;20.50;;;15.75;;
84117;SDS011;74212;51.132;6.950;2023-12-07T02:08:29;14.43;;;10.77;;
84117;SDS011;74212;51.132;6.950;2023-12-07T02:10:55;20.50;;;13.43;;
84117;SDS011;74212;51.132;6.950;2023-12-07T02:13:20;23.05;;;14.27;;
84117;SDS011;74212;51.132;6.950;2023-12-07T02:15:46;17.98;;;11.32;;
84117;SDS011;74212;51.132;6.950;2023-12-07T02:18:16;19.38;;;12.18;;
84117;SDS011;74212;51.132;6.950;2023-12-07T02:23:17;17.75;;;11.75;;
84117;SDS011;74212;51.132;6.950;2023-12-07T02:25:48;20.65;;;11.60;;
84117;SDS011;74212;51.132;6.950;2023-12-07T02:28:16;26.33;;;15.23;;
84117;SDS011;74212;51.132;6.950;2023-12-07T02:30:42;25.77;;;16.30;;
84117;SDS011;74212;51.132;6.950;2023-12-07T02:33:07;20.17;;;13.57;;
84117;SDS011;74212;51.132;6.950;2023-12-07T02:35:34;23.15;;;15.05;;
84117;SDS011;74212;51.132;6.950;2023-12-07T02:38:00;24.77;;;14.73;;
84117;SDS011;74212;51.132;6.950;2023-12-07T02:40:26;20.80;;;11.95;;
84117;SDS011;74212;51.132;6.950;2023-12-07T02:42:53;20.90;;;13.20;;
84117;SDS011;74212;51.132;6.950;2023-12-07T02:45:19;15.70;;;11.10;;
84117;SDS011;74212;51.132;6.950;2023-12-07T02:47:45;19.88;;;11.80;;
84117;SDS011;74212;51.132;6.950;2023-12-07T02:50:10;20.05;;;12.85;;
84117;SDS011;74212;51.132;6.950;2023-12-07T02:52:36;19.10;;;13.50;;
84117;SDS011;74212;51.132;6.950;2023-12-07T02:55:02;20.75;;;12.75;;
84117;SDS011;74212;51.132;6.950;2023-12-07T02:57:27;17.58;;;12.52;;
84117;SDS011;74212;51.132;6.950;2023-12-07T02:59:54;20.02;;;14.60;;
84117;SDS011;74212;51.132;6.950;2023-12-07T03:02:19;24.92;;;15.38;;
84117;SDS011;74212;51.132;6.950;2023-12-07T03:04:44;22.17;;;13.73;;
84117;SDS011;74212;51.132;6.950;2023-12-07T03:07:10;25.27;;;15.85;;
84117;SDS011;74212;51.132;6.950;2023-12-07T03:09:35;23.15;;;15.77;;
84117;SDS011;74212;51.132;6.950;2023-12-07T03:12:00;25.15;;;15.65;;
84117;SDS011;74212;51.132;6.950;2023-12-07T03:14:26;21.08;;;13.88;;
84117;SDS011;74212;51.132;6.950;2023-12-07T03:16:51;19.83;;;13.23;;
84117;SDS011;74212;51.132;6.950;2023-12-07T03:19:16;22.63;;;13.90;;
84117;SDS011;74212;51.132;6.950;2023-12-07T03:21:42;19.88;;;10.30;;
84117;SDS011;74212;51.132;6.950;2023-12-07T03:24:10;15.48;;;9.15;;
84117;SDS011;74212;51.132;6.950;2023-12-07T03:26:36;20.77;;;13.15;;
84117;SDS011;74212;51.132;6.950;2023-12-07T03:29:01;22.85;;;14.40;;
84117;SDS011;74212;51.132;6.950;2023-12-07T03:31:27;19.98;;;11.68;;
84117;SDS011;74212;51.132;6.950;2023-12-07T03:33:53;16.38;;;10.98;;
84117;SDS011;74212;51.132;6.950;2023-12-07T03:36:19;24.02;;;14.88;;
84117;SDS011;74212;51.132;6.950;2023-12-07T03:38:44;21.52;;;13.13;;
84117;SDS011;74212;51.132;6.950;2023-12-07T03:41:09;20.92;;;13.30;;
84117;SDS011;74212;51.132;6.950;2023-12-07T03:43:34;21.33;;;13.07;;
84117;SDS011;74212;51.132;6.950;2023-12-07T03:46:03;27.50;;;16.80;;
84117;SDS011;74212;51.132;6.950;2023-12-07T03:48:29;24.58;;;16.08;;
84117;SDS011;74212;51.132;6.950;2023-12-07T03:50:54;32.35;;;19.50;;
84117;SDS011;74212;51.132;6.950;2023-12-07T03:53:20;30.42;;;18.77;;
84117;SDS011;74212;51.132;6.950;2023-12-07T03:55:45;30.98;;;19.02;;
84117;SDS011;74212;51.132;6.950;2023-12-07T03:58:10;25.75;;;16.02;;
84117;SDS011;74212;51.132;6.950;2023-12-07T04:00:39;28.52;;;16.92;;
84117;SDS011;74212;51.132;6.950;2023-12-07T04:03:07;26.85;;;16.50;;
84117;SDS011;74212;51.132;6.950;2023-12-07T04:05:32;25.88;;;16.38;;
84117;SDS011;74212;51.132;6.950;2023-12-07T04:07:58;24.63;;;16.75;;
84117;SDS011;74212;51.132;6.950;2023-12-07T04:10:23;29.55;;;18.10;;
84117;SDS011;74212;51.132;6.950;2023-12-07T04:12:49;29.75;;;17.90;;
84117;SDS011;74212;51.132;6.950;2023-12-07T04:15:14;25.85;;;15.00;;
84117;SDS011;74212;51.132;6.950;2023-12-07T04:17:39;24.02;;;12.35;;
84117;SDS011;74212;51.132;6.950;2023-12-07T04:20:05;25.33;;;15.55;;
84117;SDS011;74212;51.132;6.950;2023-12-07T04:22:31;22.08;;;13.73;;
84117;SDS011;74212;51.132;6.950;2023-12-07T04:24:56;25.48;;;16.17;;
84117;SDS011;74212;51.132;6.950;2023-12-07T04:27:21;21.35;;;12.85;;
84117;SDS011;74212;51.132;6.950;2023-12-07T04:29:47;26.80;;;15.63;;
84117;SDS011;74212;51.132;6.950;2023-12-07T04:32:12;27.65;;;16.17;;
84117;SDS011;74212;51.132;6.950;2023-12-07T04:34:37;29.15;;;18.00;;
84117;SDS011;74212;51.132;6.950;2023-12-07T04:37:03;25.42;;;16.33;;
84117;SDS011;74212;51.132;6.950;2023-12-07T04:39:28;25.20;;;15.23;;
84117;SDS011;74212;51.132;6.950;2023-12-07T04:41:54;29.48;;;17.02;;
84117;SDS011;74212;51.132;6.950;2023-12-07T04:44:20;20.42;;;11.82;;
84117;SDS011;74212;51.132;6.950;2023-12-07T04:46:45;22.17;;;13.25;;
84117;SDS011;74212;51.132;6.950;2023-12-07T04:49:11;24.75;;;14.55;;
84117;SDS011;74212;51.132;6.950;2023-12-07T04:51:36;25.38;;;13.48;;
84117;SDS011;74212;51.132;6.950;2023-12-07T04:54:01;21.63;;;13.13;;
84117;SDS011;74212;51.132;6.950;2023-12-07T04:56:27;25.77;;;15.30;;
84117;SDS011;74212;51.132;6.950;2023-12-07T04:58:52;33.90;;;17.25;;
84117;SDS011;74212;51.132;6.950;2023-12-07T05:01:17;24.92;;;15.25;;
84117;SDS011;74212;51.132;6.950;2023-12-07T05:03:48;22.40;;;13.45;;
84117;SDS011;74212;51.132;6.950;2023-12-07T05:06:13;20.63;;;13.52;;
84117;SDS011;74212;51.132;6.950;2023-12-07T05:08:39;25.67;;;15.20;;
84117;SDS011;74212;51.132;6.950;2023-12-07T05:11:05;23.20;;;13.70;;
84117;SDS011;74212;51.132;6.950;2023-12-07T05:13:31;24.13;;;12.70;;
84117;SDS011;74212;51.132;6.950;2023-12-07T05:15:58;20.88;;;12.82;;
84117;SDS011;74212;51.132;6.950;2023-12-07T05:18:24;22.05;;;13.25;;
84117;SDS011;74212;51.132;6.950;2023-12-07T05:20:50;24.23;;;13.45;;
84117;SDS011;74212;51.132;6.950;2023-12-07T05:23:15;26.23;;;15.07;;
84117;SDS011;74212;51.132;6.950;2023-12-07T05:25:40;19.90;;;12.60;;
84117;SDS011;74212;51.132;6.950;2023-12-07T05:28:06;18.05;;;12.50;;
84117;SDS011;74212;51.132;6.950;2023-12-07T05:30:31;23.25;;;14.75;;
84117;SDS011;74212;51.132;6.950;2023-12-07T05:32:57;26.75;;;15.23;;
84117;SDS011;74212;51.132;6.950;2023-12-07T05:35:22;20.50;;;11.73;;
84117;SDS011;74212;51.132;6.950;2023-12-07T05:37:48;19.67;;;10.80;;
84117;SDS011;74212;51.132;6.950;2023-12-07T05:40:14;22.70;;;14.63;;
84117;SDS011;74212;51.132;6.950;2023-12-07T05:42:39;20.00;;;12.25;;
84117;SDS011;74212;51.132;6.950;2023-12-07T05:45:04;23.65;;;13.85;;
84117;SDS011;74212;51.132;6.950;2023-12-07T05:47:31;23.52;;;13.88;;
84117;SDS011;74212;51.132;6.950;2023-12-07T05:49:56;25.10;;;15.68;;
84117;SDS011;74212;51.132;6.950;2023-12-07T05:52:24;22.45;;;13.77;;
84117;SDS011;74212;51.132;6.950;2023-12-07T05:54:50;21.38;;;12.95;;
84117;SDS011;74212;51.132;6.950;2023-12-07T05:57:15;26.30;;;14.13;;
84117;SDS011;74212;51.132;6.950;2023-12-07T05:59:41;23.05;;;13.05;;
84117;SDS011;74212;51.132;6.950;2023-12-07T06:02:08;20.60;;;13.65;;
84117;SDS011;74212;51.132;6.950;2023-12-07T06:04:33;18.80;;;11.50;;
84117;SDS011;74212;51.132;6.950;2023-12-07T06:06:58;21.90;;;14.15;;
84117;SDS011;74212;51.132;6.950;2023-12-07T06:09:24;17.50;;;12.70;;
84117;SDS011;74212;51.132;6.950;2023-12-07T06:11:49;21.13;;;13.32;;
84117;SDS011;74212;51.132;6.950;2023-12-07T06:14:17;19.98;;;12.85;;
84117;SDS011;74212;51.132;6.950;2023-12-07T06:16:42;27.25;;;13.90;;
84117;SDS011;74212;51.132;6.950;2023-12-07T06:19:10;20.77;;;12.63;;
84117;SDS011;74212;51.132;6.950;2023-12-07T06:21:35;23.10;;;13.80;;
84117;SDS011;74212;51.132;6.950;2023-12-07T06:24:00;19.60;;;11.68;;
84117;SDS011;74212;51.132;6.950;2023-12-07T06:26:26;20.60;;;12.85;;
84117;SDS011;74212;51.132;6.950;2023-12-07T06:28:51;23.73;;;14.35;;
84117;SDS011;74212;51.132;6.950;2023-12-07T06:31:16;23.65;;;13.57;;
84117;SDS011;74212;51.132;6.950;2023-12-07T06:33:45;24.50;;;14.65;;
84117;SDS011;74212;51.132;6.950;2023-12-07T06:36:22;18.63;;;12.35;;
84117;SDS011;74212;51.132;6.950;2023-12-07T06:38:48;19.77;;;11.13;;
84117;SDS011;74212;51.132;6.950;2023-12-07T06:41:14;21.33;;;13.40;;
84117;SDS011;74212;51.132;6.950;2023-12-07T06:43:43;27.67;;;13.57;;
84117;SDS011;74212;51.132;6.950;2023-12-07T06:46:09;18.83;;;12.18;;
84117;SDS011;74212;51.132;6.950;2023-12-07T06:48:37;21.15;;;13.38;;
84117;SDS011;74212;51.132;6.950;2023-12-07T06:51:02;24.52;;;13.45;;
84117;SDS011;74212;51.132;6.950;2023-12-07T06:53:28;19.85;;;12.20;;
84117;SDS011;74212;51.132;6.950;2023-12-07T06:55:53;19.00;;;11.70;;
84117;SDS011;74212;51.132;6.950;2023-12-07T06:58:18;20.80;;;12.00;;
84117;SDS011;74212;51.132;6.950;2023-12-07T07:00:44;17.02;;;10.50;;
84117;SDS011;74212;51.132;6.950;2023-12-07T07:03:09;17.17;;;10.32;;
84117;SDS011;74212;51.132;6.950;2023-12-07T07:05:34;18.23;;;12.38;;
84117;SDS011;74212;51.132;6.950;2023-12-07T07:08:00;18.38;;;11.57;;
84117;SDS011;74212;51.132;6.950;2023-12-07T07:10:25;20.40;;;11.68;;
84117;SDS011;74212;51.132;6.950;2023-12-07T07:12:50;18.30;;;12.30;;
84117;SDS011;74212;51.132;6.950;2023-12-07T07:15:16;19.90;;;11.35;;
84117;SDS011;74212;51.132;6.950;2023-12-07T07:17:41;17.67;;;11.63;;
84117;SDS011;74212;51.132;6.950;2023-12-07T07:20:06;23.52;;;12.38;;
84117;SDS011;74212;51.132;6.950;2023-12-07T07:22:32;18.65;;;12.43;;
84117;SDS011;74212;51.132;6.950;2023-12-07T07:24:59;19.17;;;10.43;;
84117;SDS011;74212;51.132;6.950;2023-12-07T07:27:24;16.52;;;10.85;;
84117;SDS011;74212;51.132;6.950;2023-12-07T07:29:49;19.00;;;12.57;;
84117;SDS011;74212;51.132;6.950;2023-12-07T07:32:15;21.02;;;12.98;;
84117;SDS011;74212;51.132;6.950;2023-12-07T07:34:41;15.93;;;11.90;;
84117;SDS011;74212;51.132;6.950;2023-12-07T07:37:06;24.15;;;13.48;;
84117;SDS011;74212;51.132;6.950;2023-12-07T07:39:34;17.45;;;11.02;;
84117;SDS011;74212;51.132;6.950;2023-12-07T07:42:00;21.30;;;12.77;;
84117;SDS011;74212;51.132;6.950;2023-12-07T07:44:25;19.33;;;11.10;;
84117;SDS011;74212;51.132;6.950;2023-12-07T07:46:50;20.05;;;12.30;;
84117;SDS011;74212;51.132;6.950;2023-12-07T07:49:16;22.92;;;12.38;;
84117;SDS011;74212;51.132;6.950;2023-12-07T07:51:41;24.73;;;10.13;;
84117;SDS011;74212;51.132;6.950;2023-12-07T07:54:06;15.50;;;11.10;;
84117;SDS011;74212;51.132;6.950;2023-12-07T07:56:31;22.27;;;12.05;;
84117;SDS011;74212;51.132;6.950;2023-12-07T07:58:57;20.83;;;12.15;;
84117;SDS011;74212;51.132;6.950;2023-12-07T08:01:25;20.67;;;10.93;;
84117;SDS011;74212;51.132;6.950;2023-12-07T08:03:50;18.33;;;11.18;;
84117;SDS011;74212;51.132;6.950;2023-12-07T08:06:16;18.27;;;11.60;;
84117;SDS011;74212;51.132;6.950;2023-12-07T08:08:41;16.55;;;10.82;;
84117;SDS011;74212;51.132;6.950;2023-12-07T08:11:06;20.83;;;11.80;;
84117;SDS011;74212;51.132;6.950;2023-12-07T08:13:32;19.50;;;11.23;;
84117;SDS011;74212;51.132;6.950;2023-12-07T08:15:57;19.98;;;12.05;;
84117;SDS011;74212;51.132;6.950;2023-12-07T08:18:22;20.60;;;11.68;;
84117;SDS011;74212;51.132;6.950;2023-12-07T08:20:48;20.02;;;12.98;;
84117;SDS011;74212;51.132;6.950;2023-12-07T08:23:13;18.38;;;11.43;;
84117;SDS011;74212;51.132;6.950;2023-12-07T08:25:41;16.42;;;10.93;;
84117;SDS011;74212;51.132;6.950;2023-12-07T08:28:08;17.25;;;10.77;;
84117;SDS011;74212;51.132;6.950;2023-12-07T08:30:34;18.45;;;12.52;;
84117;SDS011;74212;51.132;6.950;2023-12-07T08:32:59;17.80;;;10.95;;
84117;SDS011;74212;51.132;6.950;2023-12-07T08:35:25;15.40;;;10.30;;
84117;SDS011;74212;51.132;6.950;2023-12-07T08:37:50;23.13;;;12.02;;
84117;SDS011;74212;51.132;6.950;2023-12-07T08:40:15;17.45;;;11.93;;
84117;SDS011;74212;51.132;6.950;2023-12-07T08:42:44;19.27;;;10.77;;
84117;SDS011;74212;51.132;6.950;2023-12-07T08:45:13;21.05;;;12.70;;
84117;SDS011;74212;51.132;6.950;2023-12-07T08:47:39;21.77;;;12.35;;
84117;SDS011;74212;51.132;6.950;2023-12-07T08:50:04;15.82;;;11.45;;
84117;SDS011;74212;51.132;6.950;2023-12-07T08:52:32;16.38;;;11.27;;
84117;SDS011;74212;51.132;6.950;2023-12-07T08:54:57;17.35;;;11.38;;
84117;SDS011;74212;51.132;6.950;2023-12-07T08:57:23;17.50;;;11.82;;
84117;SDS011;74212;51.132;6.950;2023-12-07T08:59:48;15.55;;;10.25;;
84117;SDS011;74212;51.132;6.950;2023-12-07T09:02:13;21.30;;;11.65;;
84117;SDS011;74212;51.132;6.950;2023-12-07T09:04:39;21.85;;;11.88;;
84117;SDS011;74212;51.132;6.950;2023-12-07T09:07:04;16.20;;;11.75;;
84117;SDS011;74212;51.132;6.950;2023-12-07T09:09:30;16.92;;;11.63;;
84117;SDS011;74212;51.132;6.950;2023-12-07T09:11:56;20.48;;;12.60;;
84117;SDS011;74212;51.132;6.950;2023-12-07T09:14:21;21.65;;;12.65;;
84117;SDS011;74212;51.132;6.950;2023-12-07T09:16:47;25.15;;;13.13;;
84117;SDS011;74212;51.132;6.950;2023-12-07T09:19:12;20.33;;;11.10;;
84117;SDS011;74212;51.132;6.950;2023-12-07T09:21:39;21.27;;;12.40;;
84117;SDS011;74212;51.132;6.950;2023-12-07T09:24:07;16.67;;;10.93;;
84117;SDS011;74212;51.132;6.950;2023-12-07T09:26:32;18.98;;;11.35;;
84117;SDS011;74212;51.132;6.950;2023-12-07T09:28:58;20.50;;;11.25;;
84117;SDS011;74212;51.132;6.950;2023-12-07T09:31:23;18.73;;;12.32;;
84117;SDS011;74212;51.132;6.950;2023-12-07T09:33:48;24.05;;;12.23;;
84117;SDS011;74212;51.132;6.950;2023-12-07T09:36:17;20.98;;;12.88;;
84117;SDS011;74212;51.132;6.950;2023-12-07T09:38:43;19.92;;;11.63;;
84117;SDS011;74212;51.132;6.950;2023-12-07T09:41:09;23.13;;;13.05;;
84117;SDS011;74212;51.132;6.950;2023-12-07T09:43:34;45.03;;;21.73;;
84117;SDS011;74212;51.132;6.950;2023-12-07T09:46:00;20.55;;;12.30;;
84117;SDS011;74212;51.132;6.950;2023-12-07T09:48:25;18.90;;;12.20;;
84117;SDS011;74212;51.132;6.950;2023-12-07T09:50:50;21.15;;;12.57;;
84117;SDS011;74212;51.132;6.950;2023-12-07T09:53:17;20.40;;;11.65;;
84117;SDS011;74212;51.132;6.950;2023-12-07T09:55:46;19.00;;;12.02;;
84117;SDS011;74212;51.132;6.950;2023-12-07T09:58:11;20.50;;;12.45;;
84117;SDS011;74212;51.132;6.950;2023-12-07T10:00:37;20.75;;;11.88;;
84117;SDS011;74212;51.132;6.950;2023-12-07T10:03:03;19.95;;;11.82;;
84117;SDS011;74212;51.132;6.950;2023-12-07T10:05:29;21.08;;;12.48;;
84117;SDS011;74212;51.132;6.950;2023-12-07T10:07:54;19.90;;;13.02;;
84117;SDS011;74212;51.132;6.950;2023-12-07T10:10:20;21.35;;;12.57;;
84117;SDS011;74212;51.132;6.950;2023-12-07T10:12:46;21.75;;;13.27;;
84117;SDS011;74212;51.132;6.950;2023-12-07T10:15:12;20.55;;;12.30;;
84117;SDS011;74212;51.132;6.950;2023-12-07T10:20:14;20.98;;;13.25;;
84117;SDS011;74212;51.132;6.950;2023-12-07T10:22:40;22.95;;;12.50;;
84117;SDS011;74212;51.132;6.950;2023-12-07T10:25:06;19.75;;;13.38;;
84117;SDS011;74212;51.132;6.950;2023-12-07T10:27:32;18.80;;;11.88;;
84117;SDS011;74212;51.132;6.950;2023-12-07T10:30:01;21.73;;;13.25;;
84117;SDS011;74212;51.132;6.950;2023-12-07T10:32:26;18.38;;;12.13;;
84117;SDS011;74212;51.132;6.950;2023-12-07T10:34:52;23.73;;;12.15;;
84117;SDS011;74212;51.132;6.950;2023-12-07T10:37:18;15.85;;;10.23;;
84117;SDS011;74212;51.132;6.950;2023-12-07T10:39:43;18.38;;;12.32;;
84117;SDS011;74212;51.132;6.950;2023-12-07T10:42:09;19.33;;;13.23;;
84117;SDS011;74212;51.132;6.950;2023-12-07T10:44:36;20.50;;;12.52;;
84117;SDS011;74212;51.132;6.950;2023-12-07T10:49:35;18.60;;;11.80;;
84117;SDS011;74212;51.132;6.950;2023-12-07T10:52:03;17.98;;;11.43;;
84117;SDS011;74212;51.132;6.950;2023-12-07T10:54:40;16.25;;;10.52;;
84117;SDS011;74212;51.132;6.950;2023-12-07T10:57:09;15.80;;;10.65;;
84117;SDS011;74212;51.132;6.950;2023-12-07T10:59:36;18.02;;;11.75;;
84117;SDS011;74212;51.132;6.950;2023-12-07T11:02:02;15.38;;;10.45;;
84117;SDS011;74212;51.132;6.950;2023-12-07T11:04:27;18.27;;;11.38;;
84117;SDS011;74212;51.132;6.950;2023-12-07T11:06:54;18.35;;;11.43;;
84117;SDS011;74212;51.132;6.950;2023-12-07T11:09:23;19.60;;;11.85;;
84117;SDS011;74212;51.132;6.950;2023-12-07T11:14:21;16.02;;;11.95;;
84117;SDS011;74212;51.132;6.950;2023-12-07T11:16:47;16.48;;;10.63;;
84117;SDS011;74212;51.132;6.950;2023-12-07T11:22:02;17.25;;;11.38;;
84117;SDS011;74212;51.132;6.950;2023-12-07T11:24:29;19.20;;;12.00;;
84117;SDS011;74212;51.132;6.950;2023-12-07T11:26:54;22.50;;;12.40;;
84117;SDS011;74212;51.132;6.950;2023-12-07T11:29:28;16.48;;;10.98;;
84117;SDS011;74212;51.132;6.950;2023-12-07T11:32:04;16.27;;;10.65;;
84117;SDS011;74212;51.132;6.950;2023-12-07T11:34:36;17.23;;;10.15;;
84117;SDS011;74212;51.132;6.950;2023-12-07T11:37:02;18.45;;;11.18;;
84117;SDS011;74212;51.132;6.950;2023-12-07T11:39:37;15.88;;;10.90;;
84117;SDS011;74212;51.132;6.950;2023-12-07T11:42:07;15.73;;;11.00;;
84117;SDS011;74212;51.132;6.950;2023-12-07T11:44:36;15.73;;;10.30;;
84117;SDS011;74212;51.132;6.950;2023-12-07T11:47:02;15.27;;;10.82;;
84117;SDS011;74212;51.132;6.950;2023-12-07T11:49:27;14.65;;;11.48;;
84117;SDS011;74212;51.132;6.950;2023-12-07T11:51:53;17.45;;;11.02;;
84117;SDS011;74212;51.132;6.950;2023-12-07T11:54:18;15.52;;;11.02;;
84117;SDS011;74212;51.132;6.950;2023-12-07T11:56:51;14.93;;;10.30;;
84117;SDS011;74212;51.132;6.950;2023-12-07T11:59:19;13.85;;;9.50;;
84117;SDS011;74212;51.132;6.950;2023-12-07T12:01:48;16.08;;;10.63;;
84117;SDS011;74212;51.132;6.950;2023-12-07T12:04:17;16.08;;;10.55;;
84117;SDS011;74212;51.132;6.950;2023-12-07T12:06:46;11.70;;;8.55;;
84117;SDS011;74212;51.132;6.950;2023-12-07T12:09:12;17.58;;;10.55;;
84117;SDS011;74212;51.132;6.950;2023-12-07T12:11:43;14.40;;;10.45;;
84117;SDS011;74212;51.132;6.950;2023-12-07T12:14:15;16.10;;;10.55;;
84117;SDS011;74212;51.132;6.950;2023-12-07T12:16:41;15.85;;;9.10;;
84117;SDS011;74212;51.132;6.950;2023-12-07T12:19:08;13.85;;;10.60;;
84117;SDS011;74212;51.132;6.950;2023-12-07T12:21:34;14.32;;;10.43;;
84117;SDS011;74212;51.132;6.950;2023-12-07T12:24:00;14.95;;;9.68;;
84117;SDS011;74212;51.132;6.950;2023-12-07T12:26:25;15.05;;;11.30;;
84117;SDS011;74212;51.132;6.950;2023-12-07T12:28:51;20.77;;;10.85;;
84117;SDS011;74212;51.132;6.950;2023-12-07T12:31:17;15.93;;;10.07;;
84117;SDS011;74212;51.132;6.950;2023-12-07T12:33:43;18.70;;;9.57;;
84117;SDS011;74212;51.132;6.950;2023-12-07T12:36:08;13.48;;;10.35;;
84117;SDS011;74212;51.132;6.950;2023-12-07T12:38:36;13.50;;;9.43;;
84117;SDS011;74212;51.132;6.950;2023-12-07T12:41:02;13.25;;;9.48;;
84117;SDS011;74212;51.132;6.950;2023-12-07T12:43:29;16.52;;;10.18;;
84117;SDS011;74212;51.132;6.950;2023-12-07T12:45:56;13.07;;;10.07;;
84117;SDS011;74212;51.132;6.950;2023-12-07T12:48:22;15.40;;;10.07;;
84117;SDS011;74212;51.132;6.950;2023-12-07T12:50:48;15.15;;;10.77;;
84117;SDS011;74212;51.132;6.950;2023-12-07T12:53:13;13.60;;;10.02;;
84117;SDS011;74212;51.132;6.950;2023-12-07T12:55:40;15.90;;;9.48;;
84117;SDS011;74212;51.132;6.950;2023-12-07T12:58:09;16.77;;;9.95;;
84117;SDS011;74212;51.132;6.950;2023-12-07T13:00:38;14.10;;;9.88;;
84117;SDS011;74212;51.132;6.950;2023-12-07T13:03:04;15.57;;;10.70;;
84117;SDS011;74212;51.132;6.950;2023-12-07T13:05:31;17.85;;;9.43;;
84117;SDS011;74212;51.132;6.950;2023-12-07T13:08:00;13.57;;;8.93;;
84117;SDS011;74212;51.132;6.950;2023-12-07T13:10:26;14.93;;;9.27;;
84117;SDS011;74212;51.132;6.950;2023-12-07T13:12:52;12.48;;;8.88;;
84117;SDS011;74212;51.132;6.950;2023-12-07T13:15:17;14.75;;;8.73;;
84117;SDS011;74212;51.132;6.950;2023-12-07T13:17:45;15.88;;;8.15;;
84117;SDS011;74212;51.132;6.950;2023-12-07T13:20:10;12.00;;;8.82;;
84117;SDS011;74212;51.132;6.950;2023-12-07T13:22:37;15.75;;;9.63;;
84117;SDS011;74212;51.132;6.950;2023-12-07T13:25:06;13.68;;;7.75;;
84117;SDS011;74212;51.132;6.950;2023-12-07T13:27:32;17.45;;;8.85;;
84117;SDS011;74212;51.132;6.950;2023-12-07T13:30:01;12.05;;;8.73;;
84117;SDS011;74212;51.132;6.950;2023-12-07T13:32:35;12.18;;;8.32;;
84117;SDS011;74212;51.132;6.950;2023-12-07T13:35:04;11.68;;;8.77;;
84117;SDS011;74212;51.132;6.950;2023-12-07T13:37:30;12.30;;;8.48;;
84117;SDS011;74212;51.132;6.950;2023-12-07T13:39:57;13.93;;;8.63;;
84117;SDS011;74212;51.132;6.950;2023-12-07T13:42:25;12.45;;;8.27;;
84117;SDS011;74212;51.132;6.950;2023-12-07T13:44:57;11.90;;;8.60;;
84117;SDS011;74212;51.132;6.950;2023-12-07T13:47:24;13.23;;;8.50;;
84117;SDS011;74212;51.132;6.950;2023-12-07T13:50:01;14.10;;;8.80;;
84117;SDS011;74212;51.132;6.950;2023-12-07T13:52:31;11.88;;;8.18;;
84117;SDS011;74212;51.132;6.950;2023-12-07T13:54:57;9.05;;;6.03;;
84117;SDS011;74212;51.132;6.950;2023-12-07T13:57:22;9.60;;;6.40;;
84117;SDS011;74212;51.132;6.950;2023-12-07T13:59:51;13.93;;;8.35;;
84117;SDS011;74212;51.132;6.950;2023-12-07T14:02:17;12.48;;;7.28;;
84117;SDS011;74212;51.132;6.950;2023-12-07T14:04:43;15.68;;;7.95;;
84117;SDS011;74212;51.132;6.950;2023-12-07T14:07:12;13.48;;;7.28;;
84117;SDS011;74212;51.132;6.950;2023-12-07T14:12:05;12.63;;;7.78;;
84117;SDS011;74212;51.132;6.950;2023-12-07T14:14:30;9.45;;;7.32;;
84117;SDS011;74212;51.132;6.950;2023-12-07T14:16:56;12.07;;;7.32;;
84117;SDS011;74212;51.132;6.950;2023-12-07T14:19:21;10.35;;;6.65;;
84117;SDS011;74212;51.132;6.950;2023-12-07T14:21:47;12.07;;;7.40;;
84117;SDS011;74212;51.132;6.950;2023-12-07T14:24:12;12.55;;;7.60;;
84117;SDS011;74212;51.132;6.950;2023-12-07T14:26:37;11.38;;;7.68;;
84117;SDS011;74212;51.132;6.950;2023-12-07T14:29:03;7.97;;;6.13;;
84117;SDS011;74212;51.132;6.950;2023-12-07T14:31:28;9.73;;;6.45;;
84117;SDS011;74212;51.132;6.950;2023-12-07T14:33:53;9.88;;;6.80;;